createdAt,value
2023-05-10T00:01:05.885Z,26.76
2023-05-10T00:03:33.580Z,26.94
2023-05-10T00:06:01.155Z,27.07
2023-05-10T00:08:28.644Z,27.04
2023-05-10T00:10:56.233Z,26.90
2023-05-10T00:13:24.032Z,26.99
2023-05-10T00:15:51.996Z,27.15
2023-05-10T00:18:20.732Z,27.16
2023-05-10T00:20:49.885Z,27.21
2023-05-10T00:23:17.410Z,27.36
2023-05-10T00:25:44.916Z,27.25
2023-05-10T00:28:12.975Z,27.34
2023-05-10T00:30:43.254Z,27.52
2023-05-10T00:33:12.500Z,27.44
2023-05-10T00:35:40.339Z,27.52
2023-05-10T00:38:08.213Z,27.71
2023-05-10T00:40:38.281Z,27.64
2023-05-10T00:43:05.898Z,27.69
2023-05-10T00:45:34.395Z,27.72
2023-05-10T00:48:03.236Z,27.79
2023-05-10T00:50:32.426Z,27.74
2023-05-10T00:53:01.729Z,27.94
2023-05-10T00:55:29.498Z,28.05
2023-05-10T00:57:57.065Z,28.03
2023-05-10T01:00:26.413Z,28.14
2023-05-10T01:02:57.150Z,28.09
2023-05-10T01:05:25.849Z,28.22
2023-05-10T01:07:53.610Z,28.13
2023-05-10T01:10:21.197Z,28.17
2023-05-10T01:12:49.346Z,28.20
2023-05-10T01:15:19.190Z,28.40
2023-05-10T01:17:48.801Z,28.28
2023-05-10T01:20:17.232Z,28.43
2023-05-10T01:23:05.531Z,28.45
2023-05-10T01:25:35.780Z,28.62
2023-05-10T01:28:21.956Z,28.62
2023-05-10T01:31:20.658Z,28.74
2023-05-10T01:34:13.785Z,28.78
2023-05-10T01:36:48.927Z,28.82
2023-05-10T01:39:16.848Z,28.85
2023-05-10T01:41:53.306Z,28.90
2023-05-10T01:44:40.418Z,29.03
2023-05-10T01:47:15.490Z,29.14
2023-05-10T01:49:54.392Z,29.16
2023-05-10T01:52:32.249Z,29.15
2023-05-10T01:55:09.280Z,29.27
2023-05-10T01:57:40.726Z,29.36
2023-05-10T02:00:09.725Z,29.46
2023-05-10T02:02:45.774Z,29.35
2023-05-10T02:05:16.315Z,29.45
2023-05-10T02:07:44.991Z,29.50
2023-05-10T02:10:14.863Z,29.62
2023-05-10T02:12:46.341Z,29.53
2023-05-10T02:15:19.759Z,29.57
2023-05-10T02:17:48.316Z,29.65
2023-05-10T02:20:19.746Z,29.66
2023-05-10T02:22:51.340Z,29.72
2023-05-10T02:25:22.147Z,29.75
2023-05-10T02:27:50.964Z,29.83
2023-05-10T02:30:20.112Z,29.94
2023-05-10T02:32:49.226Z,29.91
2023-05-10T02:35:17.840Z,30.02
2023-05-10T02:37:46.783Z,30.02
2023-05-10T02:40:17.788Z,30.07
2023-05-10T02:42:51.430Z,30.14
2023-05-10T02:45:23.029Z,30.18
2023-05-10T02:47:50.597Z,30.23
2023-05-10T02:50:19.510Z,30.28
2023-05-10T02:53:01.647Z,30.19
2023-05-10T02:55:33.905Z,30.36
2023-05-10T02:58:03.120Z,30.42
2023-05-10T03:00:30.848Z,30.40
2023-05-10T03:02:59.084Z,30.39
2023-05-10T03:05:26.712Z,30.48
2023-05-10T03:07:55.292Z,30.55
2023-05-10T03:10:29.230Z,30.47
2023-05-10T03:13:24.048Z,30.64
2023-05-10T03:16:08.766Z,30.65
2023-05-10T03:18:57.527Z,30.66
2023-05-10T03:21:29.759Z,30.64
2023-05-10T03:24:07.870Z,30.86
2023-05-10T03:26:36.972Z,30.85
2023-05-10T03:29:07.223Z,30.80
2023-05-10T03:31:35.197Z,30.85
2023-05-10T03:34:02.743Z,30.93
2023-05-10T03:36:30.423Z,30.89
2023-05-10T03:38:57.945Z,30.94
2023-05-10T03:41:26.463Z,30.83
2023-05-10T03:43:54.252Z,31.01
2023-05-10T03:46:21.837Z,30.92
2023-05-10T03:48:49.416Z,30.92
2023-05-10T03:51:16.924Z,30.87
2023-05-10T03:53:44.455Z,30.88
2023-05-10T03:56:11.991Z,30.98
2023-05-10T03:58:39.553Z,30.97
2023-05-10T04:01:07.086Z,31.03
2023-05-10T04:03:37.413Z,31.04
2023-05-10T04:06:06.269Z,31.00
2023-05-10T04:08:33.835Z,30.86
2023-05-10T04:11:09.536Z,31.05
2023-05-10T04:13:37.643Z,30.98
2023-05-10T04:16:05.792Z,30.96
2023-05-10T04:18:33.654Z,30.89
2023-05-10T04:21:01.210Z,30.99
2023-05-10T04:23:29.074Z,31.02
2023-05-10T04:26:03.152Z,30.94
2023-05-10T04:28:30.810Z,31.07
2023-05-10T04:31:06.114Z,31.12
2023-05-10T04:33:35.024Z,31.02
2023-05-10T04:36:03.973Z,31.00
2023-05-10T04:38:32.619Z,30.99
2023-05-10T04:41:08.516Z,30.88
2023-05-10T04:43:38.584Z,30.84
2023-05-10T04:46:08.448Z,30.96
2023-05-10T04:48:36.279Z,30.87
2023-05-10T04:51:04.946Z,30.95
2023-05-10T04:53:33.235Z,30.87
2023-05-10T04:56:01.133Z,30.85
2023-05-10T04:58:28.853Z,30.96
2023-05-10T05:00:56.367Z,30.94
2023-05-10T05:03:24.013Z,30.80
2023-05-10T05:05:51.838Z,30.94
2023-05-10T05:08:19.443Z,30.90
2023-05-10T05:10:46.943Z,30.78
2023-05-10T05:13:14.442Z,30.73
2023-05-10T05:15:41.982Z,30.77
2023-05-10T05:18:09.538Z,30.62
2023-05-10T05:20:37.561Z,30.73
2023-05-10T05:23:05.287Z,30.69
2023-05-10T05:25:35.454Z,30.77
2023-05-10T05:28:14.319Z,30.61
2023-05-10T05:30:51.461Z,30.59
2023-05-10T05:33:20.085Z,30.65
2023-05-10T05:35:51.743Z,30.58
2023-05-10T05:38:19.303Z,30.52
2023-05-10T05:40:52.388Z,30.34
2023-05-10T05:43:19.907Z,30.36
2023-05-10T05:45:47.753Z,30.39
2023-05-10T05:48:15.412Z,30.19
2023-05-10T05:50:44.056Z,30.23
2023-05-10T05:53:11.771Z,30.25
2023-05-10T05:55:39.524Z,30.18
2023-05-10T05:58:09.470Z,30.19
2023-05-10T06:00:39.677Z,30.16
2023-05-10T06:03:10.574Z,29.96
2023-05-10T06:05:38.118Z,30.03
2023-05-10T06:08:05.777Z,30.01
2023-05-10T06:10:35.150Z,29.92
2023-05-10T06:13:11.055Z,29.85
2023-05-10T06:15:42.576Z,29.90
2023-05-10T06:18:24.306Z,29.91
2023-05-10T06:21:05.304Z,29.84
2023-05-10T06:24:00.228Z,29.58
2023-05-10T06:26:36.565Z,29.63
2023-05-10T06:29:04.649Z,29.55
2023-05-10T06:31:32.544Z,29.45
2023-05-10T06:34:00.144Z,29.52
2023-05-10T06:36:28.156Z,29.52
2023-05-10T06:38:56.100Z,29.45
2023-05-10T06:41:24.980Z,29.40
2023-05-10T06:43:52.870Z,29.39
2023-05-10T06:46:20.526Z,29.31
2023-05-10T06:48:48.249Z,29.24
2023-05-10T06:51:15.865Z,29.09
2023-05-10T06:53:43.358Z,29.17
2023-05-10T06:56:11.093Z,29.11
2023-05-10T06:58:39.122Z,29.31
2023-05-10T07:01:06.775Z,29.50
2023-05-10T07:03:34.592Z,29.39
2023-05-10T07:06:05.956Z,29.20
2023-05-10T07:08:39.538Z,29.10
2023-05-10T07:11:11.168Z,28.95
2023-05-10T07:13:40.593Z,28.93
2023-05-10T07:16:08.859Z,28.91
2023-05-10T07:18:37.045Z,28.80
2023-05-10T07:21:05.059Z,28.74
2023-05-10T07:23:32.747Z,28.78
2023-05-10T07:26:00.935Z,28.74
2023-05-10T07:28:28.670Z,28.68
2023-05-10T07:30:56.394Z,28.72
2023-05-10T07:33:24.051Z,28.66
2023-05-10T07:35:51.998Z,28.45
2023-05-10T07:38:19.578Z,28.28
2023-05-10T07:40:47.276Z,28.13
2023-05-10T07:43:14.751Z,28.29
2023-05-10T07:45:42.623Z,28.27
2023-05-10T07:48:10.225Z,28.97
2023-05-10T07:50:37.747Z,28.50
2023-05-10T07:53:05.386Z,28.06
2023-05-10T07:55:33.434Z,28.04
2023-05-10T07:58:09.494Z,27.83
2023-05-10T08:00:52.903Z,27.45
2023-05-10T08:03:29.762Z,27.45
2023-05-10T08:06:06.764Z,27.71
2023-05-10T08:08:54.347Z,27.75
2023-05-10T08:11:26.559Z,27.54
2023-05-10T08:13:59.600Z,27.47
2023-05-10T08:16:28.656Z,27.47
2023-05-10T08:19:04.823Z,27.32
2023-05-10T08:21:47.551Z,27.13
2023-05-10T08:24:17.868Z,27.03
2023-05-10T08:26:55.038Z,27.02
2023-05-10T08:29:50.208Z,27.05
2023-05-10T08:32:28.391Z,27.13
2023-05-10T08:34:59.664Z,26.84
2023-05-10T08:37:43.122Z,26.68
2023-05-10T08:40:16.836Z,26.80
2023-05-10T08:42:52.251Z,27.21
2023-05-10T08:45:24.040Z,27.15
2023-05-10T08:47:54.229Z,26.90
2023-05-10T08:50:23.204Z,26.74
2023-05-10T08:52:57.100Z,26.68
2023-05-10T08:55:25.307Z,27.07
2023-05-10T08:57:53.049Z,26.64
2023-05-10T09:00:21.621Z,26.39
2023-05-10T09:02:53.685Z,26.20
2023-05-10T09:05:21.291Z,25.84
2023-05-10T09:07:48.787Z,25.73
2023-05-10T09:10:17.569Z,25.69
2023-05-10T09:12:46.654Z,25.44
2023-05-10T09:15:18.111Z,25.36
2023-05-10T09:17:47.120Z,25.31
2023-05-10T09:20:14.673Z,25.40
2023-05-10T09:22:42.229Z,25.32
2023-05-10T09:25:17.636Z,25.21
2023-05-10T09:27:47.335Z,25.26
2023-05-10T09:30:35.277Z,25.04
2023-05-10T09:33:03.622Z,25.09
2023-05-10T09:35:32.998Z,25.22
2023-05-10T09:38:05.075Z,25.49
2023-05-10T09:40:33.332Z,25.50
2023-05-10T09:43:07.008Z,25.36
2023-05-10T09:45:38.507Z,25.60
2023-05-10T09:48:07.560Z,25.46
2023-05-10T09:50:37.562Z,25.22
2023-05-10T09:53:05.183Z,25.22
2023-05-10T09:55:48.341Z,24.86
2023-05-10T09:58:16.195Z,24.29
2023-05-10T10:00:46.122Z,24.25
2023-05-10T10:03:19.436Z,24.21
2023-05-10T10:05:48.927Z,24.21
2023-05-10T10:08:17.780Z,24.08
2023-05-10T10:10:46.914Z,24.14
2023-05-10T10:13:15.009Z,24.16
2023-05-10T10:15:45.019Z,23.91
2023-05-10T10:18:18.643Z,23.87
2023-05-10T10:20:46.971Z,23.80
2023-05-10T10:23:17.296Z,23.66
2023-05-10T10:25:53.371Z,23.87
2023-05-10T10:28:33.515Z,23.53
2023-05-10T10:31:16.922Z,23.27
2023-05-10T10:34:12.566Z,23.27
2023-05-10T10:36:48.004Z,23.31
2023-05-10T10:39:22.313Z,23.15
2023-05-10T10:41:56.166Z,22.86
2023-05-10T10:44:29.527Z,22.43
2023-05-10T10:47:03.743Z,22.46
2023-05-10T10:49:43.858Z,22.61
2023-05-10T10:52:34.975Z,22.55
2023-05-10T10:55:30.819Z,22.55
2023-05-10T10:58:01.757Z,22.23
2023-05-10T11:00:46.556Z,22.11
2023-05-10T11:03:18.184Z,22.21
2023-05-10T11:05:48.241Z,22.13
2023-05-10T11:08:18.991Z,21.97
2023-05-10T11:11:10.009Z,21.76
2023-05-10T11:13:44.895Z,21.78
2023-05-10T11:16:27.932Z,21.55
2023-05-10T11:19:12.979Z,21.42
2023-05-10T11:22:13.910Z,21.28
2023-05-10T11:24:59.559Z,21.24
2023-05-10T11:27:27.620Z,21.27
2023-05-10T11:29:55.267Z,21.11
2023-05-10T11:32:23.926Z,20.97
2023-05-10T11:34:55.134Z,21.00
2023-05-10T11:37:23.563Z,20.73
2023-05-10T11:39:51.628Z,20.87
2023-05-10T11:42:21.854Z,20.66
2023-05-10T11:44:50.818Z,20.33
2023-05-10T11:47:18.541Z,20.23
2023-05-10T11:49:47.680Z,20.09
2023-05-10T11:52:15.307Z,19.91
2023-05-10T11:54:59.489Z,20.00
2023-05-10T11:57:29.546Z,20.30
2023-05-10T11:59:58.523Z,20.14
2023-05-10T12:02:26.561Z,20.11
2023-05-10T12:04:57.494Z,19.67
2023-05-10T12:07:27.246Z,19.49
2023-05-10T12:10:21.380Z,19.48
2023-05-10T12:12:53.553Z,19.39
2023-05-10T12:15:24.142Z,19.07
2023-05-10T12:17:52.522Z,18.98
2023-05-10T12:20:25.376Z,19.00
2023-05-10T12:22:55.164Z,18.77
2023-05-10T12:25:25.565Z,18.71
2023-05-10T12:27:56.834Z,18.53
2023-05-10T12:30:34.854Z,18.31
2023-05-10T12:33:11.909Z,18.19
2023-05-10T12:35:57.434Z,18.19
2023-05-10T12:38:35.234Z,18.27
2023-05-10T12:41:08.537Z,18.23
2023-05-10T12:43:36.942Z,18.11
2023-05-10T12:46:12.819Z,17.87
2023-05-10T12:48:42.763Z,17.61
2023-05-10T12:51:27.391Z,17.22
2023-05-10T12:53:58.498Z,17.06
2023-05-10T12:56:28.016Z,17.25
2023-05-10T12:59:18.755Z,17.17
2023-05-10T13:01:46.699Z,17.15
2023-05-10T13:04:20.485Z,17.02
2023-05-10T13:06:51.969Z,17.04
2023-05-10T13:09:30.504Z,16.71
2023-05-10T13:11:58.420Z,16.51
2023-05-10T13:14:26.707Z,16.05
2023-05-10T13:16:54.894Z,15.91
2023-05-10T13:19:22.548Z,16.15
2023-05-10T13:21:50.046Z,16.22
2023-05-10T13:24:18.444Z,15.99
2023-05-10T13:26:47.543Z,15.78
2023-05-10T13:29:19.222Z,15.71
2023-05-10T13:31:47.761Z,15.56
2023-05-10T13:34:17.178Z,15.46
2023-05-10T13:36:50.448Z,15.16
2023-05-10T13:39:21.752Z,15.04
2023-05-10T13:41:49.956Z,15.12
2023-05-10T13:44:17.570Z,14.93
2023-05-10T13:46:45.786Z,14.79
2023-05-10T13:49:14.058Z,14.80
2023-05-10T13:51:43.514Z,14.67
2023-05-10T13:54:13.409Z,14.70
2023-05-10T13:56:43.534Z,14.64
2023-05-10T13:59:11.374Z,14.72
2023-05-10T14:01:39.444Z,14.41
2023-05-10T14:04:11.602Z,14.28
2023-05-10T14:06:39.809Z,14.05
2023-05-10T14:09:07.983Z,13.91
2023-05-10T14:11:36.305Z,13.83
2023-05-10T14:14:04.550Z,13.87
2023-05-10T14:16:32.879Z,13.69
2023-05-10T14:19:00.653Z,13.69
2023-05-10T14:21:30.442Z,13.42
2023-05-10T14:23:58.075Z,13.22
2023-05-10T14:26:25.810Z,13.23
2023-05-10T14:28:53.834Z,13.34
2023-05-10T14:31:21.604Z,13.38
2023-05-10T14:33:49.275Z,13.03
2023-05-10T14:36:17.137Z,12.94
2023-05-10T14:38:44.769Z,13.06
2023-05-10T14:41:15.930Z,13.07
2023-05-10T14:43:44.617Z,12.66
2023-05-10T14:46:14.062Z,12.55
2023-05-10T14:48:41.909Z,12.64
2023-05-10T14:51:09.752Z,12.43
2023-05-10T14:53:38.679Z,12.24
2023-05-10T14:56:07.497Z,12.32
2023-05-10T14:58:35.472Z,12.35
2023-05-10T15:01:03.496Z,12.19
2023-05-10T15:03:32.732Z,12.16
2023-05-10T15:06:01.551Z,12.13
2023-05-10T15:08:29.897Z,12.04
2023-05-10T15:10:58.334Z,12.02
2023-05-10T15:13:26.420Z,12.07
2023-05-10T15:15:54.279Z,11.88
2023-05-10T15:18:25.881Z,11.70
2023-05-10T15:20:53.511Z,11.67
2023-05-10T15:23:21.161Z,11.70
2023-05-10T15:25:50.678Z,11.73
2023-05-10T15:28:18.262Z,11.46
2023-05-10T15:30:45.905Z,11.34
2023-05-10T15:33:13.502Z,11.31
2023-05-10T15:35:41.963Z,11.13
2023-05-10T15:38:10.703Z,11.15
2023-05-10T15:40:38.529Z,11.09
2023-05-10T15:43:09.051Z,11.04
2023-05-10T15:45:37.873Z,11.00
2023-05-10T15:48:06.032Z,10.96
2023-05-10T15:50:35.230Z,10.79
2023-05-10T15:53:03.013Z,10.83
2023-05-10T15:55:31.045Z,10.87
2023-05-10T15:57:58.839Z,10.68
2023-05-10T16:00:26.758Z,10.65
2023-05-10T16:02:54.375Z,10.65
2023-05-10T16:05:22.614Z,10.73
2023-05-10T16:07:50.163Z,10.41
2023-05-10T16:10:17.721Z,10.54
2023-05-10T16:12:45.273Z,10.40
2023-05-10T16:15:12.928Z,10.45
2023-05-10T16:17:41.511Z,10.33
2023-05-10T16:20:09.535Z,10.38
2023-05-10T16:22:38.555Z,10.28
2023-05-10T16:25:06.705Z,10.30
2023-05-10T16:27:34.362Z,10.36
2023-05-10T16:30:02.189Z,10.06
2023-05-10T16:32:29.858Z,10.03
2023-05-10T16:34:58.921Z,10.16
2023-05-10T16:37:28.040Z,10.13
2023-05-10T16:39:55.608Z,10.41
2023-05-10T16:42:25.052Z,9.97
2023-05-10T16:44:53.624Z,10.01
2023-05-10T16:47:21.108Z,10.02
2023-05-10T16:49:49.362Z,10.33
2023-05-10T16:52:17.096Z,10.05
2023-05-10T16:54:45.143Z,10.17
2023-05-10T16:57:12.704Z,10.20
2023-05-10T16:59:40.715Z,10.42
2023-05-10T17:02:08.384Z,10.32
2023-05-10T17:04:36.091Z,10.18
2023-05-10T17:07:04.158Z,10.25
2023-05-10T17:09:31.712Z,10.22
2023-05-10T17:11:59.173Z,10.20
2023-05-10T17:14:26.897Z,10.25
2023-05-10T17:16:55.467Z,10.49
2023-05-10T17:19:25.630Z,10.67
2023-05-10T17:21:53.978Z,10.86
2023-05-10T17:24:21.570Z,11.10
2023-05-10T17:26:49.119Z,11.26
2023-05-10T17:29:20.503Z,11.62
2023-05-10T17:31:48.798Z,11.85
2023-05-10T17:34:24.007Z,12.02
2023-05-10T17:36:51.622Z,12.25
2023-05-10T17:39:19.456Z,12.46
2023-05-10T17:41:47.197Z,12.60
2023-05-10T17:44:14.955Z,12.93
2023-05-10T17:46:42.747Z,13.06
2023-05-10T17:49:10.660Z,13.35
2023-05-10T17:51:41.543Z,13.51
2023-05-10T17:54:09.602Z,13.57
2023-05-10T17:56:37.249Z,13.86
2023-05-10T17:59:05.461Z,14.09
2023-05-10T18:01:33.291Z,14.35
2023-05-10T18:04:04.700Z,14.41
2023-05-10T18:06:40.291Z,14.62
2023-05-10T18:09:08.474Z,14.82
2023-05-10T18:11:36.764Z,14.99
2023-05-10T18:14:04.765Z,15.25
2023-05-10T18:16:32.409Z,15.42
2023-05-10T18:19:00.218Z,15.53
2023-05-10T18:21:39.008Z,15.67
2023-05-10T18:24:07.436Z,15.89
2023-05-10T18:26:35.750Z,16.03
2023-05-10T18:29:03.302Z,16.12
2023-05-10T18:31:30.862Z,16.27
2023-05-10T18:33:58.620Z,16.46
2023-05-10T18:36:26.290Z,16.75
2023-05-10T18:38:54.615Z,16.72
2023-05-10T18:41:22.329Z,16.76
2023-05-10T18:43:50.054Z,16.98
2023-05-10T18:46:17.887Z,17.13
2023-05-10T18:48:46.317Z,17.16
2023-05-10T18:51:13.978Z,17.35
2023-05-10T18:53:41.704Z,17.46
2023-05-10T18:56:09.393Z,17.63
2023-05-10T18:58:37.175Z,17.62
2023-05-10T19:01:05.020Z,17.84
2023-05-10T19:03:32.746Z,17.88
2023-05-10T19:06:00.543Z,18.01
2023-05-10T19:08:28.202Z,18.15
2023-05-10T19:10:55.814Z,18.17
2023-05-10T19:13:24.657Z,18.29
2023-05-10T19:16:12.423Z,18.36
2023-05-10T19:18:40.143Z,18.55
2023-05-10T19:21:10.305Z,18.57
2023-05-10T19:23:42.894Z,18.79
2023-05-10T19:26:11.283Z,18.79
2023-05-10T19:28:39.508Z,18.87
2023-05-10T19:31:08.464Z,19.02
2023-05-10T19:33:38.334Z,19.11
2023-05-10T19:36:07.335Z,19.15
2023-05-10T19:38:35.494Z,19.38
2023-05-10T19:41:04.051Z,19.42
2023-05-10T19:43:36.629Z,19.55
2023-05-10T19:46:04.551Z,19.53
2023-05-10T19:48:32.188Z,19.54
2023-05-10T19:51:02.595Z,19.67
2023-05-10T19:53:31.644Z,19.75
2023-05-10T19:56:04.783Z,19.72
2023-05-10T19:58:35.761Z,19.90
2023-05-10T20:01:05.589Z,20.04
2023-05-10T20:03:36.235Z,20.01
2023-05-10T20:06:04.303Z,20.05
2023-05-10T20:08:31.986Z,20.17
2023-05-10T20:11:02.717Z,20.22
2023-05-10T20:13:30.702Z,20.34
2023-05-10T20:15:59.440Z,20.43
2023-05-10T20:18:27.305Z,20.45
2023-05-10T20:20:56.095Z,20.51
2023-05-10T20:23:23.842Z,20.57
2023-05-10T20:25:51.716Z,20.58
2023-05-10T20:28:28.240Z,20.81
2023-05-10T20:30:56.291Z,20.62
2023-05-10T20:33:26.352Z,20.78
2023-05-10T20:35:56.698Z,20.75
2023-05-10T20:38:25.179Z,20.90
2023-05-10T20:40:59.649Z,21.02
2023-05-10T20:43:29.041Z,20.93
2023-05-10T20:46:05.552Z,20.97
2023-05-10T20:48:36.087Z,21.17
2023-05-10T20:51:04.346Z,21.20
2023-05-10T20:53:33.643Z,21.26
2023-05-10T20:56:03.046Z,21.30
2023-05-10T20:58:38.969Z,21.42
2023-05-10T21:01:06.869Z,21.54
2023-05-10T21:03:44.379Z,21.56
2023-05-10T21:06:14.052Z,21.50
2023-05-10T21:08:41.656Z,21.77
2023-05-10T21:11:09.287Z,21.86
2023-05-10T21:13:36.913Z,21.75
2023-05-10T21:16:05.223Z,21.77
2023-05-10T21:18:32.969Z,22.01
2023-05-10T21:21:00.844Z,22.04
2023-05-10T21:23:28.457Z,21.99
2023-05-10T21:25:56.188Z,22.10
2023-05-10T21:28:24.350Z,22.11
2023-05-10T21:30:51.941Z,22.30
2023-05-10T21:33:19.578Z,22.23
2023-05-10T21:35:47.256Z,22.38
2023-05-10T21:38:15.612Z,22.42
2023-05-10T21:40:43.179Z,22.56
2023-05-10T21:43:11.500Z,22.53
2023-05-10T21:45:39.673Z,22.64
2023-05-10T21:48:09.333Z,22.63
2023-05-10T21:50:37.088Z,22.96
2023-05-10T21:53:05.234Z,22.88
2023-05-10T21:55:34.464Z,22.89
2023-05-10T21:58:01.973Z,22.93
2023-05-10T22:00:30.035Z,23.06
2023-05-10T22:03:00.935Z,23.13
2023-05-10T22:05:28.638Z,23.16
2023-05-10T22:07:56.262Z,23.30
2023-05-10T22:10:23.872Z,23.18
2023-05-10T22:12:51.800Z,23.41
2023-05-10T22:15:19.482Z,23.45
2023-05-10T22:17:47.987Z,23.47
2023-05-10T22:20:15.794Z,23.43
2023-05-10T22:22:44.468Z,23.67
2023-05-10T22:25:12.019Z,23.74
2023-05-10T22:27:39.803Z,23.68
2023-05-10T22:30:08.132Z,23.84
2023-05-10T22:32:35.803Z,23.90
2023-05-10T22:35:04.219Z,23.96
2023-05-10T22:37:32.216Z,24.16
2023-05-10T22:39:59.706Z,24.15
2023-05-10T22:42:27.360Z,24.19
2023-05-10T22:44:54.976Z,24.36
2023-05-10T22:47:22.522Z,24.32
2023-05-10T22:49:50.147Z,24.37
2023-05-10T22:52:17.709Z,24.54
2023-05-10T22:54:45.300Z,24.54
2023-05-10T22:57:13.102Z,24.56
2023-05-10T22:59:40.729Z,24.58
2023-05-10T23:02:09.646Z,24.68
2023-05-10T23:04:37.495Z,24.68
2023-05-10T23:07:05.297Z,24.76
2023-05-10T23:09:33.071Z,24.82
2023-05-10T23:12:00.597Z,24.92
2023-05-10T23:14:28.198Z,24.88
2023-05-10T23:16:55.976Z,24.90
2023-05-10T23:19:24.727Z,24.99
2023-05-10T23:21:52.287Z,25.01
2023-05-10T23:24:19.904Z,25.10
2023-05-10T23:26:47.472Z,25.13
2023-05-10T23:29:16.375Z,25.23
2023-05-10T23:31:46.276Z,25.24
2023-05-10T23:34:13.850Z,25.29
2023-05-10T23:36:41.407Z,25.57
2023-05-10T23:39:08.938Z,25.49
2023-05-10T23:41:38.093Z,25.47
2023-05-10T23:44:08.016Z,25.45
2023-05-10T23:46:35.567Z,25.57
2023-05-10T23:49:03.244Z,25.54
2023-05-10T23:51:30.857Z,25.55
2023-05-10T23:54:00.246Z,25.61
2023-05-10T23:56:27.974Z,25.66
2023-05-10T23:58:55.731Z,25.78
